Time;durP1;ratioP1;P1;durP2;ratioP2;P2;SDS_P1;SDS_P2;PMS_P1;PMS_P2;Temp;Humidity;BMP_temperature;BMP_pressure;BME280_temperature;BME280_humidity;BME280_pressure;Samples;Min_cycle;Max_cycle;Signal;HPM_P1;HPM_P2
2023/05/05 00:00:20;;;;;;;11.75;7.25;;;;;;;14.12;81.47;101270.78;5092103;28;20112;-81
2023/05/05 00:02:47;;;;;;;8.63;5.68;;;;;;;14.18;82.20;101278.44;5093854;28;20482;-81
2023/05/05 00:05:13;;;;;;;9.75;6.45;;;;;;;14.19;81.84;101271.63;5087474;28;20032;-81
2023/05/05 00:07:38;;;;;;;7.68;5.90;;;;;;;14.26;82.36;101275.69;5102822;28;20106;-81
2023/05/05 00:10:04;;;;;;;7.85;5.13;;;;;;;14.24;81.51;101273.28;5093473;28;20499;-81
2023/05/05 00:12:30;;;;;;;7.75;6.00;;;;;;;14.22;81.67;101262.41;5112716;28;20035;-81
2023/05/05 00:14:55;;;;;;;9.15;5.88;;;;;;;14.18;81.92;101263.56;5104585;28;20044;-80
2023/05/05 00:17:21;;;;;;;9.48;5.95;;;;;;;14.15;81.95;101250.31;5089450;28;20042;-80
2023/05/05 00:19:46;;;;;;;10.57;6.68;;;;;;;14.07;82.05;101259.91;5100498;28;20016;-80
2023/05/05 00:22:12;;;;;;;10.25;6.18;;;;;;;14.05;83.02;101267.94;5096272;28;20058;-80
2023/05/05 00:24:37;;;;;;;10.68;5.95;;;;;;;14.11;82.15;101260.72;5073319;28;20393;-80
2023/05/05 00:27:02;;;;;;;8.05;6.22;;;;;;;14.01;82.91;101240.56;5077299;28;20023;-80
2023/05/05 00:29:28;;;;;;;9.07;6.10;;;;;;;13.96;82.73;101257.03;5093135;28;20171;-80
2023/05/05 00:31:55;;;;;;;8.40;6.20;;;;;;;14.02;82.88;101252.66;5089092;28;20028;-80
2023/05/05 00:34:20;;;;;;;14.07;6.55;;;;;;;14.02;82.51;101247.81;5092248;28;20386;-80
2023/05/05 00:36:45;;;;;;;10.20;6.32;;;;;;;13.95;83.44;101256.19;5097363;28;20101;-80
2023/05/05 00:39:11;;;;;;;9.73;6.20;;;;;;;14.05;82.54;101237.78;5089644;28;20050;-80
2023/05/05 00:41:36;;;;;;;10.38;5.90;;;;;;;14.06;82.58;101247.00;5084927;28;20149;-80
2023/05/05 00:44:02;;;;;;;8.45;5.10;;;;;;;14.07;83.10;101245.84;5101497;28;20050;-80
2023/05/05 00:46:29;;;;;;;11.40;6.00;;;;;;;13.91;83.16;101229.22;5101890;28;20027;-80
2023/05/05 00:48:56;;;;;;;11.73;6.20;;;;;;;14.03;83.57;101242.97;5100407;28;20029;-80
2023/05/05 00:51:22;;;;;;;10.07;6.47;;;;;;;13.91;83.90;101241.28;5073005;28;20652;-80
2023/05/05 00:53:48;;;;;;;11.05;6.32;;;;;;;13.82;83.97;101226.78;5098633;27;20032;-80
2023/05/05 00:56:20;;;;;;;8.38;6.55;;;;;;;13.69;84.74;101231.09;5089938;28;20487;-80
2023/05/05 00:58:46;;;;;;;10.90;6.60;;;;;;;13.84;84.15;101244.06;5076144;28;20019;-80
2023/05/05 01:01:11;;;;;;;13.38;6.97;;;;;;;13.82;84.30;101240.84;5081744;28;20341;-80
2023/05/05 01:03:38;;;;;;;11.85;7.13;;;;;;;13.73;85.47;101240.38;5103803;28;20024;-80
2023/05/05 01:06:22;;;;;;;6.93;5.75;;;;;;;13.83;84.57;101251.72;5085801;28;20027;-80
2023/05/05 01:08:54;;;;;;;8.70;6.60;;;;;;;13.75;84.61;101232.38;5085308;28;20438;-80
2023/05/05 01:11:54;;;;;;;12.40;6.55;;;;;;;13.70;85.57;101246.78;5088693;28;20020;-80
2023/05/05 01:14:31;;;;;;;10.00;7.22;;;;;;;13.73;85.18;101229.13;5090459;28;20419;-80
2023/05/05 01:17:03;;;;;;;10.27;6.32;;;;;;;13.82;84.43;101240.84;5072456;28;20038;-80
2023/05/05 01:19:47;;;;;;;10.60;7.05;;;;;;;13.75;85.28;101230.34;5089298;28;20102;-80
2023/05/05 01:22:16;;;;;;;9.60;6.28;;;;;;;13.75;85.05;101235.19;5090423;28;20149;-80
2023/05/05 01:24:53;;;;;;;9.13;6.90;;;;;;;13.69;86.10;101233.91;5092112;28;20023;-80
2023/05/05 01:27:33;;;;;;;13.27;6.85;;;;;;;13.71;85.68;101229.50;5075580;28;20504;-80
2023/05/05 01:30:14;;;;;;;14.27;7.68;;;;;;;13.71;85.59;101234.34;5071672;28;20020;-80
2023/05/05 01:32:46;;;;;;;15.00;7.85;;;;;;;13.72;86.08;101244.38;5072179;28;20027;-80
2023/05/05 01:35:14;;;;;;;12.07;7.65;;;;;;;13.58;87.06;101240.28;5090527;28;20384;-80
2023/05/05 01:37:48;;;;;;;14.27;7.60;;;;;;;13.57;87.18;101238.63;5073372;28;20109;-80
2023/05/05 01:40:18;;;;;;;13.45;8.05;;;;;;;13.62;86.63;101235.47;5070836;28;20024;-80
2023/05/05 01:42:45;;;;;;;11.70;7.72;;;;;;;13.62;86.29;101234.69;5074628;28;20012;-80
2023/05/05 01:45:13;;;;;;;9.82;7.13;;;;;;;13.53;87.19;101242.63;5084121;28;20493;-80
2023/05/05 01:47:41;;;;;;;11.43;6.63;;;;;;;13.59;87.06;101241.88;5070451;28;20025;-80
2023/05/05 01:50:08;;;;;;;12.32;6.90;;;;;;;13.55;87.69;101238.22;5077641;28;20508;-80
2023/05/05 01:52:36;;;;;;;15.05;8.30;;;;;;;13.45;88.29;101240.94;5069599;28;20024;-80
2023/05/05 01:55:02;;;;;;;13.32;7.85;;;;;;;13.50;88.17;101254.66;5068563;28;20443;-79
2023/05/05 01:57:31;;;;;;;12.90;7.70;;;;;;;13.44;88.07;101234.53;5076389;28;20031;-80
2023/05/05 02:00:00;;;;;;;12.73;7.55;;;;;;;13.36;89.30;101236.47;5068399;28;20024;-81
2023/05/05 02:02:27;;;;;;;12.25;6.88;;;;;;;13.43;88.69;101249.81;5078813;28;20848;-82
2023/05/05 02:04:54;;;;;;;10.35;7.35;;;;;;;13.44;88.58;101248.59;5082797;28;20478;-81
2023/05/05 02:07:21;;;;;;;12.05;7.28;;;;;;;13.18;91.05;101261.59;5072545;28;20021;-81
2023/05/05 02:09:47;;;;;;;11.85;7.22;;;;;;;13.36;89.57;101253.34;5074400;28;20028;-81
2023/05/05 02:12:13;;;;;;;9.82;6.57;;;;;;;13.32;90.20;101248.88;5085535;28;20401;-82
2023/05/05 02:14:41;;;;;;;12.32;6.68;;;;;;;13.30;90.42;101256.88;5076248;28;20434;-80
2023/05/05 02:17:08;;;;;;;8.93;6.78;;;;;;;13.32;89.52;101255.28;5074102;28;20375;-81
2023/05/05 02:19:38;;;;;;;14.88;6.93;;;;;;;13.34;90.18;101264.16;5088390;28;20020;-81
2023/05/05 02:22:04;;;;;;;9.15;7.45;;;;;;;13.44;89.90;101273.09;5084926;28;20021;-81
2023/05/05 02:24:30;;;;;;;11.20;6.95;;;;;;;13.38;90.07;101278.25;5069058;28;20039;-81
2023/05/05 02:26:57;;;;;;;11.57;6.80;;;;;;;13.29;90.69;101277.78;5084522;28;20090;-80
2023/05/05 02:29:35;;;;;;;12.65;8.15;;;;;;;13.30;90.90;101259.69;5069467;28;20020;-81
2023/05/05 02:32:10;;;;;;;10.50;8.20;;;;;;;13.17;93.86;101274.00;5071698;28;20020;-81
2023/05/05 02:34:39;;;;;;;7.80;6.20;;;;;;;13.27;91.59;101269.69;5086024;28;20040;-81
2023/05/05 02:37:09;;;;;;;14.38;7.00;;;;;;;13.16;97.97;101278.03;5084812;28;20040;-80
2023/05/05 02:39:46;;;;;;;10.13;7.55;;;;;;;13.26;96.76;101264.44;5079062;28;20516;-80
2023/05/05 02:42:18;;;;;;;12.10;7.43;;;;;;;13.20;98.96;101245.13;5071414;28;20032;-80
2023/05/05 02:44:45;;;;;;;14.10;7.75;;;;;;;13.14;100.00;101237.44;5070049;28;20119;-81
2023/05/05 02:47:11;;;;;;;15.93;8.85;;;;;;;13.30;100.00;101228.78;5069199;28;20051;-80
2023/05/05 02:49:36;;;;;;;12.07;7.70;;;;;;;13.18;99.21;101230.66;5067040;28;20482;-80
2023/05/05 02:52:02;;;;;;;11.93;8.05;;;;;;;13.17;100.00;101226.22;5069353;28;20044;-80
2023/05/05 02:54:27;;;;;;;14.23;9.13;;;;;;;13.10;100.00;101236.59;5080617;28;20401;-80
2023/05/05 02:56:56;;;;;;;12.85;7.93;;;;;;;13.14;100.00;101257.94;5069651;28;20028;-80
2023/05/05 02:59:27;;;;;;;15.80;8.35;;;;;;;13.25;100.00;101260.03;5080681;28;20115;-80
2023/05/05 03:02:17;;;;;;;9.98;7.70;;;;;;;13.32;99.57;101260.13;5074160;28;20020;-80
2023/05/05 03:04:53;;;;;;;12.38;8.02;;;;;;;13.27;100.00;101257.66;5073586;28;20031;-80
2023/05/05 03:07:33;;;;;;;12.68;6.68;;;;;;;13.22;100.00;101256.81;5088063;28;20044;-80
2023/05/05 03:10:12;;;;;;;11.50;8.20;;;;;;;13.10;100.00;101253.47;5085382;28;20027;-80
2023/05/05 03:12:59;;;;;;;12.25;7.00;;;;;;;13.14;100.00;101259.94;5069757;28;20112;-79
2023/05/05 03:15:30;;;;;;;12.43;7.60;;;;;;;13.07;100.00;101266.28;5077283;28;20040;-80
2023/05/05 03:17:57;;;;;;;14.35;9.30;;;;;;;13.12;100.00;101251.09;5078225;28;20082;-80
2023/05/05 03:20:24;;;;;;;18.35;9.77;;;;;;;13.01;100.00;101262.22;5084852;28;20029;-81
2023/05/05 03:22:51;;;;;;;20.40;8.50;;;;;;;13.11;100.00;101258.72;5082083;28;20120;-83
2023/05/05 03:25:16;;;;;;;19.30;10.70;;;;;;;12.94;100.00;101250.88;5077040;28;20036;-81
2023/05/05 03:27:41;;;;;;;16.20;8.85;;;;;;;12.98;100.00;101246.09;5070946;28;20062;-82
2023/05/05 03:30:07;;;;;;;14.00;8.13;;;;;;;13.01;100.00;101220.88;5072929;28;20063;-82
2023/05/05 03:32:32;;;;;;;18.90;10.27;;;;;;;12.95;100.00;101239.28;5067788;28;20063;-82
2023/05/05 03:34:58;;;;;;;14.82;8.95;;;;;;;12.88;100.00;101249.59;5071117;28;20025;-82
2023/05/05 03:37:23;;;;;;;11.15;7.97;;;;;;;12.87;100.00;101245.19;5095015;28;20130;-83
2023/05/05 03:39:48;;;;;;;14.70;8.90;;;;;;;12.90;100.00;101233.19;5097716;28;20042;-82
2023/05/05 03:42:14;;;;;;;12.50;8.32;;;;;;;12.85;100.00;101241.97;5093340;28;20032;-82
2023/05/05 03:44:39;;;;;;;14.48;9.00;;;;;;;12.87;100.00;101253.63;5097741;28;20476;-82
2023/05/05 03:47:05;;;;;;;14.57;9.23;;;;;;;12.89;100.00;101254.06;5075547;28;20027;-83
2023/05/05 03:49:30;;;;;;;15.93;9.70;;;;;;;12.60;100.00;101246.09;5081701;28;20022;-82
2023/05/05 03:51:55;;;;;;;15.52;9.32;;;;;;;12.83;100.00;101264.81;5092318;28;20028;-83
2023/05/05 03:54:21;;;;;;;14.77;9.73;;;;;;;12.77;100.00;101281.19;5079171;28;20020;-82
2023/05/05 03:56:46;;;;;;;12.52;9.90;;;;;;;12.85;100.00;101281.28;5082349;28;20039;-82
2023/05/05 03:59:11;;;;;;;14.38;9.93;;;;;;;12.70;100.00;101272.69;5101835;28;20024;-82
2023/05/05 04:01:37;;;;;;;14.32;8.93;;;;;;;12.85;100.00;101286.91;5095877;28;20023;-82
2023/05/05 04:04:02;;;;;;;17.80;9.20;;;;;;;12.84;100.00;101274.03;5087224;28;20027;-83
2023/05/05 04:06:27;;;;;;;14.18;8.80;;;;;;;12.84;100.00;101294.53;5091082;28;20392;-83
2023/05/05 04:08:53;;;;;;;14.02;8.55;;;;;;;12.68;100.00;101280.69;5093298;28;20012;-82
2023/05/05 04:11:20;;;;;;;13.63;8.57;;;;;;;12.69;100.00;101298.34;5075667;28;20047;-83
2023/05/05 04:13:45;;;;;;;12.63;9.32;;;;;;;12.77;100.00;101308.47;5074428;28;20031;-82
2023/05/05 04:16:11;;;;;;;14.50;9.25;;;;;;;12.70;100.00;101314.81;5082166;28;20027;-82
2023/05/05 04:18:37;;;;;;;12.23;8.57;;;;;;;12.71;100.00;101316.47;5091627;28;20023;-83
2023/05/05 04:21:02;;;;;;;15.60;9.65;;;;;;;12.77;100.00;101322.53;5097083;28;20411;-82
2023/05/05 04:23:28;;;;;;;14.68;8.48;;;;;;;12.76;100.00;101324.53;5090466;28;20046;-82
2023/05/05 04:25:53;;;;;;;18.33;9.70;;;;;;;12.68;100.00;101322.81;5075866;28;20042;-82
2023/05/05 04:28:19;;;;;;;17.10;9.45;;;;;;;12.61;100.00;101311.50;5076878;28;20044;-82
2023/05/05 04:30:44;;;;;;;13.15;9.15;;;;;;;12.58;100.00;101295.41;5092031;28;20320;-82
2023/05/05 04:33:10;;;;;;;14.93;9.88;;;;;;;12.68;100.00;101305.16;5090320;28;20028;-82
2023/05/05 04:35:35;;;;;;;14.60;8.93;;;;;;;12.66;100.00;101313.97;5081643;28;20056;-82
2023/05/05 04:38:01;;;;;;;18.00;9.25;;;;;;;12.43;100.00;101319.69;5078558;28;20050;-82
2023/05/05 04:40:26;;;;;;;15.73;8.98;;;;;;;12.62;100.00;101332.78;5083260;28;20024;-82
2023/05/05 04:42:52;;;;;;;14.23;9.43;;;;;;;12.47;100.00;101322.53;5091923;28;20020;-83
2023/05/05 04:45:17;;;;;;;14.15;9.25;;;;;;;12.47;100.00;101331.78;5094226;28;20035;-83
2023/05/05 04:47:42;;;;;;;13.73;9.52;;;;;;;12.53;100.00;101321.81;5082006;28;20030;-83
2023/05/05 04:50:08;;;;;;;18.20;10.43;;;;;;;12.61;100.00;101339.59;5094726;28;20024;-82
2023/05/05 04:52:34;;;;;;;19.50;11.00;;;;;;;12.37;100.00;101347.25;5092321;28;20400;-82
2023/05/05 04:55:00;;;;;;;17.00;9.82;;;;;;;12.58;100.00;101354.38;5090634;28;20027;-82
2023/05/05 04:57:25;;;;;;;14.52;9.05;;;;;;;12.67;100.00;101343.69;5092969;28;20019;-82
2023/05/05 04:59:50;;;;;;;12.80;8.55;;;;;;;12.71;100.00;101338.09;5087595;28;20169;-82
2023/05/05 05:02:16;;;;;;;14.23;9.57;;;;;;;12.57;100.00;101319.09;5086169;28;20031;-82
2023/05/05 05:04:41;;;;;;;21.02;12.82;;;;;;;12.55;100.00;101349.53;5090359;28;20485;-82
2023/05/05 05:07:07;;;;;;;18.85;12.13;;;;;;;12.45;100.00;101342.56;5089800;28;20031;-82
2023/05/05 05:09:32;;;;;;;20.67;10.15;;;;;;;12.52;100.00;101345.50;5107889;27;20042;-82
2023/05/05 05:11:59;;;;;;;15.75;9.55;;;;;;;12.54;100.00;101350.72;5090396;28;20111;-81
2023/05/05 05:14:26;;;;;;;24.25;12.45;;;;;;;12.33;100.00;101356.81;5079144;28;21571;-81
2023/05/05 05:16:52;;;;;;;17.63;10.77;;;;;;;12.45;100.00;101355.81;5092658;28;20051;-82
2023/05/05 05:19:17;;;;;;;16.80;9.65;;;;;;;12.39;100.00;101366.53;5088545;28;20024;-81
2023/05/05 05:21:43;;;;;;;14.57;10.35;;;;;;;12.45;100.00;101367.84;5092773;28;20051;-82
2023/05/05 05:24:10;;;;;;;13.88;9.23;;;;;;;12.52;100.00;101369.94;5079632;28;20028;-81
2023/05/05 05:26:36;;;;;;;15.68;9.63;;;;;;;12.57;100.00;101367.63;5085422;28;20393;-81
2023/05/05 05:29:01;;;;;;;18.60;11.38;;;;;;;12.68;100.00;101370.56;5098872;28;20023;-81
2023/05/05 05:31:26;;;;;;;16.30;9.88;;;;;;;12.66;100.00;101361.72;5083642;28;20031;-81
2023/05/05 05:33:52;;;;;;;18.38;11.80;;;;;;;12.65;100.00;101371.34;5085897;28;20036;-82
2023/05/05 05:36:17;;;;;;;21.20;12.77;;;;;;;12.66;100.00;101370.16;5095310;28;20040;-81
2023/05/05 05:38:42;;;;;;;24.00;13.50;;;;;;;12.62;100.00;101380.50;5105755;28;20027;-81
2023/05/05 05:41:08;;;;;;;22.15;13.10;;;;;;;12.60;100.00;101380.09;5100486;28;20031;-82
2023/05/05 05:43:33;;;;;;;17.45;10.90;;;;;;;12.62;100.00;101369.28;5088039;28;20531;-82
2023/05/05 05:45:59;;;;;;;22.40;12.13;;;;;;;12.53;100.00;101360.34;5084901;28;20055;-82
2023/05/05 05:48:27;;;;;;;24.75;14.27;;;;;;;12.59;100.00;101376.47;5102657;28;20031;-82
2023/05/05 05:50:53;;;;;;;24.85;13.43;;;;;;;12.64;100.00;101366.91;5089575;28;20028;-82
2023/05/05 05:53:18;;;;;;;25.40;14.23;;;;;;;12.71;100.00;101369.81;5102499;28;20039;-82
2023/05/05 05:55:45;;;;;;;24.50;15.52;;;;;;;12.72;100.00;101376.25;5086508;28;20016;-83
2023/05/05 05:58:10;;;;;;;22.17;13.32;;;;;;;12.78;100.00;101378.34;5091008;28;20031;-82
2023/05/05 06:00:36;;;;;;;20.90;12.57;;;;;;;12.89;100.00;101389.72;5080411;28;20115;-83
2023/05/05 06:03:01;;;;;;;27.08;15.27;;;;;;;12.91;100.00;101387.31;5090037;28;20027;-83
2023/05/05 06:05:26;;;;;;;19.25;12.75;;;;;;;12.92;100.00;101393.75;5090568;28;20028;-82
2023/05/05 06:07:52;;;;;;;26.27;15.70;;;;;;;12.97;100.00;101385.00;5092472;28;20084;-82
2023/05/05 06:10:17;;;;;;;27.55;15.45;;;;;;;12.99;100.00;101391.84;5109210;27;20488;-82
2023/05/05 06:12:43;;;;;;;17.10;10.48;;;;;;;12.99;100.00;101385.44;5110346;28;20031;-82
2023/05/05 06:15:08;;;;;;;21.55;13.65;;;;;;;13.09;100.00;101403.59;5108275;28;20119;-82
2023/05/05 06:17:34;;;;;;;26.65;14.18;;;;;;;13.18;100.00;101393.69;5091835;28;20068;-82
2023/05/05 06:19:59;;;;;;;27.00;13.60;;;;;;;13.31;100.00;101405.50;5105228;28;20119;-82
2023/05/05 06:22:24;;;;;;;25.33;14.00;;;;;;;13.30;100.00;101397.47;5088647;28;20031;-82
2023/05/05 06:24:50;;;;;;;23.25;12.95;;;;;;;13.34;100.00;101398.31;5108724;28;20035;-82
2023/05/05 06:27:15;;;;;;;21.23;12.45;;;;;;;13.45;100.00;101396.44;5091273;28;20066;-82
2023/05/05 06:29:40;;;;;;;21.30;13.73;;;;;;;13.48;100.00;101401.28;5102696;28;20035;-82
2023/05/05 06:32:07;;;;;;;17.80;11.35;;;;;;;13.57;100.00;101392.53;5087037;28;20516;-82
2023/05/05 06:34:32;;;;;;;18.50;10.93;;;;;;;13.48;100.00;101387.22;5110194;28;20015;-83
2023/05/05 06:36:58;;;;;;;22.48;11.82;;;;;;;13.73;100.00;101412.00;5091856;28;20036;-82
2023/05/05 06:39:23;;;;;;;23.17;11.85;;;;;;;13.62;100.00;101395.81;5091024;28;20477;-82
2023/05/05 06:41:49;;;;;;;21.17;13.75;;;;;;;13.90;100.00;101404.91;5091529;28;20036;-83
2023/05/05 06:44:14;;;;;;;19.30;11.48;;;;;;;13.72;100.00;101399.91;5083346;28;20046;-82
2023/05/05 06:46:42;;;;;;;22.98;13.05;;;;;;;13.93;100.00;101402.13;5091449;28;20078;-82
2023/05/05 06:49:07;;;;;;;17.58;11.30;;;;;;;14.02;100.00;101415.88;5090845;28;20119;-83
2023/05/05 06:51:33;;;;;;;17.85;11.35;;;;;;;14.05;100.00;101397.41;5091656;28;20106;-82
2023/05/05 06:53:58;;;;;;;18.45;10.75;;;;;;;14.07;100.00;101411.91;5083086;28;20031;-83
2023/05/05 06:56:24;;;;;;;23.20;12.27;;;;;;;14.29;100.00;101410.06;5091578;28;20084;-82
2023/05/05 06:58:49;;;;;;;21.55;10.13;;;;;;;14.30;100.00;101412.50;5103266;28;20560;-82
2023/05/05 07:01:14;;;;;;;21.27;10.88;;;;;;;14.36;100.00;101419.38;5088426;28;20452;-82
2023/05/05 07:03:40;;;;;;;21.48;12.18;;;;;;;14.75;100.00;101418.84;5090303;28;20026;-82
2023/05/05 07:06:05;;;;;;;17.35;10.27;;;;;;;14.55;100.00;101420.31;5085244;28;20540;-82
2023/05/05 07:08:30;;;;;;;21.88;10.85;;;;;;;14.61;100.00;101418.78;5109195;28;20032;-83
2023/05/05 07:10:56;;;;;;;25.83;10.55;;;;;;;14.61;100.00;101436.47;5094469;28;20039;-82
2023/05/05 07:13:21;;;;;;;20.02;10.88;;;;;;;14.57;100.00;101423.59;5107680;28;20096;-82
2023/05/05 07:15:48;;;;;;;24.38;12.23;;;;;;;15.03;100.00;101437.09;5101428;28;20039;-82
2023/05/05 07:18:15;;;;;;;16.92;9.75;;;;;;;14.88;100.00;101433.41;5090277;28;20020;-82
2023/05/05 07:20:40;;;;;;;17.23;10.60;;;;;;;14.89;100.00;101431.41;5078757;28;20472;-82
2023/05/05 07:23:06;;;;;;;21.25;11.07;;;;;;;15.06;100.00;101444.00;5081862;28;20047;-82
2023/05/05 07:25:31;;;;;;;17.63;9.95;;;;;;;14.89;100.00;101440.69;5077298;28;20028;-83
2023/05/05 07:27:57;;;;;;;17.25;9.23;;;;;;;14.67;100.00;101439.72;5075241;28;20119;-82
2023/05/05 07:30:24;;;;;;;19.65;9.20;;;;;;;14.87;100.00;101445.91;5094283;28;20016;-82
2023/05/05 07:32:50;;;;;;;15.70;9.38;;;;;;;15.25;100.00;101466.22;5083144;28;20084;-82
2023/05/05 07:35:19;;;;;;;13.02;7.15;;;;;;;15.24;100.00;101462.59;5078697;28;20038;-83
2023/05/05 07:37:44;;;;;;;17.70;9.15;;;;;;;15.16;100.00;101472.25;5078523;28;20484;-82
2023/05/05 07:40:10;;;;;;;14.85;8.27;;;;;;;15.33;100.00;101461.44;5084504;28;20036;-82
2023/05/05 07:42:36;;;;;;;17.23;7.85;;;;;;;15.11;100.00;101468.97;5074849;28;20532;-82
2023/05/05 07:45:02;;;;;;;14.85;7.07;;;;;;;15.36;100.00;101469.91;5075754;28;20032;-82
2023/05/05 07:47:27;;;;;;;15.70;8.15;;;;;;;15.57;100.00;101454.25;5085644;28;20020;-82
2023/05/05 07:49:52;;;;;;;11.75;7.65;;;;;;;15.60;100.00;101457.09;5083282;28;20020;-81
2023/05/05 07:52:18;;;;;;;16.73;8.55;;;;;;;15.94;100.00;101478.56;5080161;28;20031;-82
2023/05/05 07:54:44;;;;;;;14.75;6.47;;;;;;;15.70;100.00;101472.44;5091338;28;20031;-81
2023/05/05 07:57:09;;;;;;;8.05;5.85;;;;;;;15.53;100.00;101459.88;5092059;28;20031;-82
2023/05/05 07:59:35;;;;;;;9.65;5.07;;;;;;;15.73;100.00;101470.88;5089867;28;20038;-81
2023/05/05 08:02:00;;;;;;;11.02;6.15;;;;;;;15.71;100.00;101461.97;5088347;28;20039;-81
2023/05/05 08:04:25;;;;;;;10.60;5.50;;;;;;;16.04;100.00;101491.88;5091791;28;20028;-81
2023/05/05 08:06:51;;;;;;;13.60;5.35;;;;;;;16.04;100.00;101481.44;5086411;28;20456;-81
2023/05/05 08:09:16;;;;;;;13.13;5.38;;;;;;;16.31;100.00;101483.84;5090448;28;20089;-82
2023/05/05 08:11:42;;;;;;;12.45;5.28;;;;;;;16.11;100.00;101472.16;5090312;28;20024;-82
2023/05/05 08:14:07;;;;;;;9.13;6.22;;;;;;;16.31;100.00;101483.84;5090150;28;20046;-81
2023/05/05 08:16:33;;;;;;;11.52;5.57;;;;;;;16.21;100.00;101462.88;5090015;28;20019;-81
2023/05/05 08:18:58;;;;;;;7.35;4.32;;;;;;;16.41;100.00;101477.41;5090962;28;20023;-82
2023/05/05 08:21:24;;;;;;;7.35;3.70;;;;;;;16.36;100.00;101474.16;5090165;28;20028;-81
2023/05/05 08:23:49;;;;;;;9.13;4.25;;;;;;;16.40;100.00;101464.50;5086382;28;20414;-81
2023/05/05 08:26:14;;;;;;;8.13;3.15;;;;;;;16.57;100.00;101476.16;5090483;28;20556;-81
2023/05/05 08:28:40;;;;;;;5.90;2.92;;;;;;;16.49;100.00;101457.63;5089757;28;20549;-82
2023/05/05 08:31:05;;;;;;;9.02;3.88;;;;;;;16.51;100.00;101469.31;5090284;28;20494;-81
2023/05/05 08:33:31;;;;;;;7.10;4.47;;;;;;;16.78;100.00;101461.22;5091007;28;20120;-81
2023/05/05 08:35:56;;;;;;;7.40;3.88;;;;;;;16.80;100.00;101470.94;5091764;28;20065;-82
2023/05/05 08:38:22;;;;;;;4.72;2.13;;;;;;;16.73;100.00;101464.47;5094179;28;20072;-81
2023/05/05 08:40:49;;;;;;;5.63;2.85;;;;;;;16.89;100.00;101473.34;5091989;28;20023;-82
2023/05/05 08:43:19;;;;;;;9.48;3.85;;;;;;;16.98;100.00;101478.56;5090221;28;20024;-82
2023/05/05 08:45:45;;;;;;;6.05;2.80;;;;;;;16.99;98.80;101471.69;5090382;28;20016;-82
2023/05/05 08:48:11;;;;;;;5.60;3.25;;;;;;;17.13;98.85;101494.28;5082220;28;20077;-82
2023/05/05 08:50:38;;;;;;;7.13;3.53;;;;;;;17.02;100.00;101477.34;5090789;28;20656;-82
2023/05/05 08:53:15;;;;;;;5.65;3.55;;;;;;;17.28;98.57;101484.53;5096384;28;20108;-82
2023/05/05 08:55:48;;;;;;;9.90;4.20;;;;;;;17.07;97.80;101478.94;5089654;28;20032;-82
2023/05/05 08:58:15;;;;;;;6.82;4.35;;;;;;;17.11;99.45;101479.75;5082241;28;20016;-82
2023/05/05 09:00:43;;;;;;;10.23;4.13;;;;;;;17.04;97.99;101491.09;5093793;28;20473;-82
2023/05/05 09:03:10;;;;;;;7.13;3.92;;;;;;;17.25;99.00;101491.03;5092908;28;20020;-82
2023/05/05 09:05:36;;;;;;;5.60;3.80;;;;;;;17.44;98.05;101500.25;5093659;28;20492;-82
2023/05/05 09:08:04;;;;;;;11.48;4.63;;;;;;;17.26;97.02;101505.97;5093284;28;20480;-82
2023/05/05 09:10:31;;;;;;;7.97;3.92;;;;;;;17.26;97.99;101500.31;5082491;28;20022;-82
2023/05/05 09:12:57;;;;;;;5.82;3.88;;;;;;;17.47;96.66;101517.19;5109591;28;20026;-82
2023/05/05 09:15:22;;;;;;;7.88;4.28;;;;;;;17.57;94.79;101503.44;5102931;28;20032;-83
2023/05/05 09:17:47;;;;;;;6.88;3.50;;;;;;;18.03;95.36;101510.91;5090528;28;20369;-84
2023/05/05 09:20:13;;;;;;;6.40;3.53;;;;;;;17.74;97.95;101515.88;5095233;27;20454;-84
2023/05/05 09:22:41;;;;;;;7.63;3.72;;;;;;;17.59;94.39;101498.97;5108889;28;20031;-83
2023/05/05 09:25:10;;;;;;;9.13;4.10;;;;;;;17.96;92.39;101517.44;5090408;28;20175;-83
2023/05/05 09:27:40;;;;;;;7.20;3.80;;;;;;;17.54;95.94;101530.53;5086318;28;20028;-83
2023/05/05 09:30:06;;;;;;;9.23;4.43;;;;;;;17.63;94.15;101519.56;5093318;28;20019;-83
2023/05/05 09:32:52;;;;;;;11.52;5.32;;;;;;;17.54;97.87;101524.88;5088256;28;20501;-84
2023/05/05 09:35:19;;;;;;;6.63;4.53;;;;;;;17.45;98.23;101521.66;5093295;28;20046;-84
2023/05/05 09:37:45;;;;;;;9.48;4.95;;;;;;;17.57;96.06;101528.91;5087969;28;20519;-83
2023/05/05 09:40:17;;;;;;;5.97;4.93;;;;;;;17.50;98.45;101518.44;5090028;28;20039;-83
2023/05/05 09:42:43;;;;;;;6.85;4.43;;;;;;;17.53;95.57;101528.13;5089395;28;20038;-83
2023/05/05 09:45:17;;;;;;;9.73;4.35;;;;;;;17.65;96.69;101517.13;5088918;28;20032;-83
2023/05/05 09:47:44;;;;;;;7.65;4.18;;;;;;;17.74;97.83;101513.84;5094314;28;20025;-83
2023/05/05 09:50:14;;;;;;;7.68;4.30;;;;;;;17.75;95.68;101523.16;5087452;28;20420;-83
2023/05/05 09:52:40;;;;;;;9.05;4.47;;;;;;;17.99;93.26;101521.44;5085322;28;20546;-83
2023/05/05 09:55:16;;;;;;;9.82;4.65;;;;;;;17.84;98.33;101515.06;5089111;28;20646;-83
2023/05/05 09:57:41;;;;;;;9.20;5.03;;;;;;;17.94;93.59;101519.03;5052518;28;20735;-82
2023/05/05 10:00:07;;;;;;;8.73;5.43;;;;;;;18.08;93.50;101519.75;5059594;28;20101;-83
2023/05/05 10:02:35;;;;;;;13.95;5.05;;;;;;;18.08;96.69;101513.28;5064078;28;20409;-82
2023/05/05 10:05:17;;;;;;;8.20;4.28;;;;;;;18.00;93.46;101506.84;5073935;28;21392;-83
2023/05/05 10:07:45;;;;;;;8.55;4.38;;;;;;;17.91;95.14;101512.19;5069433;28;20116;-82
2023/05/05 10:10:15;;;;;;;13.07;4.97;;;;;;;17.90;92.00;101512.59;5068628;28;20106;-81
2023/05/05 10:12:41;;;;;;;7.80;4.05;;;;;;;17.93;94.47;101514.59;5071753;28;20055;-82
2023/05/05 10:15:08;;;;;;;10.60;4.53;;;;;;;18.00;94.42;101491.88;5068130;28;20529;-81
2023/05/05 10:17:47;;;;;;;12.48;4.80;;;;;;;18.17;90.51;101499.47;5073491;28;20478;-82
2023/05/05 10:20:14;;;;;;;8.75;4.18;;;;;;;18.16;90.33;101485.72;5076916;28;20016;-82
2023/05/05 10:22:49;;;;;;;8.13;3.58;;;;;;;18.18;94.19;101488.94;5072057;28;20532;-81
2023/05/05 10:25:16;;;;;;;5.53;3.10;;;;;;;18.49;94.34;101499.22;5086381;28;20503;-83
2023/05/05 10:27:45;;;;;;;7.50;2.28;;;;;;;18.21;96.45;101488.09;5075798;28;20028;-82
2023/05/05 10:30:23;;;;;;;3.58;2.17;;;;;;;18.05;90.18;101489.44;5077577;28;20077;-82
2023/05/05 10:33:04;;;;;;;5.13;2.40;;;;;;;17.93;89.74;101489.91;5069953;28;20044;-82
2023/05/05 10:35:33;;;;;;;8.05;2.15;;;;;;;18.06;91.01;101487.41;5074326;28;20028;-82
2023/05/05 10:37:59;;;;;;;5.43;2.00;;;;;;;18.15;92.11;101490.59;5084811;28;20554;-83
2023/05/05 10:40:24;;;;;;;4.05;2.25;;;;;;;18.16;89.96;101480.06;5070153;28;20032;-82
2023/05/05 10:42:52;;;;;;;5.32;2.03;;;;;;;18.22;91.32;101490.53;5081685;28;20073;-83
2023/05/05 10:45:19;;;;;;;2.88;1.67;;;;;;;18.37;92.18;101494.06;5067364;28;20129;-83
2023/05/05 10:47:45;;;;;;;5.93;2.47;;;;;;;18.24;93.08;101492.97;5071893;28;20035;-83
2023/05/05 10:50:28;;;;;;;6.70;2.97;;;;;;;18.04;88.43;101489.84;5071609;28;20119;-83
2023/05/05 10:53:09;;;;;;;3.28;2.60;;;;;;;18.06;87.83;101481.72;5074035;28;20489;-83
2023/05/05 10:55:47;;;;;;;4.43;1.63;;;;;;;18.16;88.97;101477.22;5079099;28;20039;-83
2023/05/05 10:58:30;;;;;;;4.05;1.73;;;;;;;17.98;86.51;101461.16;5077776;28;20499;-83
2023/05/05 11:00:55;;;;;;;3.42;1.63;;;;;;;17.98;90.08;101469.66;5078669;28;20028;-81
2023/05/05 11:03:25;;;;;;;6.50;2.42;;;;;;;17.98;91.85;101472.50;5077651;28;20500;-88
2023/05/05 11:06:07;;;;;;;6.72;2.35;;;;;;;17.88;92.28;101471.34;5078642;28;20396;-87
2023/05/05 11:08:34;;;;;;;7.82;4.25;;;;;;;17.79;93.34;101467.31;5079933;28;20381;-88
2023/05/05 11:11:00;;;;;;;7.35;4.03;;;;;;;17.65;95.63;101474.69;5081578;28;20032;-87
2023/05/05 11:13:26;;;;;;;11.35;4.80;;;;;;;17.55;96.72;101464.22;5077966;28;20035;-87
2023/05/05 11:15:55;;;;;;;13.82;5.15;;;;;;;17.55;95.40;101469.88;5080756;28;20016;-91